Time;durP1;ratioP1;P1;durP2;ratioP2;P2;SDS_P1;SDS_P2;PMS_P1;PMS_P2;Temp;Humidity;BMP_temperature;BMP_pressure;BME280_temperature;BME280_humidity;BME280_pressure;Samples;Min_cycle;Max_cycle;Signal;HPM_P1;HPM_P2
2023/04/18 00:02:05;;;;;;;20.30;18.17;;;;;;;9.84;72.22;102461.84;5091263;28;20099;-57
2023/04/18 00:04:32;;;;;;;20.05;18.02;;;;;;;9.86;72.34;102461.81;5091685;28;20050;-57
2023/04/18 00:06:58;;;;;;;19.17;17.27;;;;;;;9.66;72.71;102460.69;5090263;28;20020;-57
2023/04/18 00:09:24;;;;;;;20.33;18.17;;;;;;;9.53;73.06;102462.88;5090688;28;20125;-57
2023/04/18 00:11:54;;;;;;;20.73;18.63;;;;;;;9.64;72.48;102461.63;5091610;28;20220;-58
2023/04/18 00:14:20;;;;;;;20.80;18.92;;;;;;;9.72;72.49;102454.28;5091749;28;20028;-57
2023/04/18 00:16:45;;;;;;;20.40;18.35;;;;;;;9.49;72.44;102455.91;5091115;28;20019;-57
2023/04/18 00:19:11;;;;;;;21.58;17.63;;;;;;;9.48;72.78;102462.16;5091723;28;20022;-57
2023/04/18 00:21:38;;;;;;;21.23;18.98;;;;;;;9.35;73.46;102459.94;5091072;28;20020;-57
2023/04/18 00:24:04;;;;;;;20.83;18.75;;;;;;;9.29;73.68;102453.03;5090408;28;20073;-57
2023/04/18 00:26:29;;;;;;;21.13;19.23;;;;;;;9.37;73.66;102460.75;5093433;28;20032;-58
2023/04/18 00:28:54;;;;;;;22.13;19.83;;;;;;;9.26;73.28;102442.50;5092315;28;20459;-57
2023/04/18 00:31:20;;;;;;;21.48;19.15;;;;;;;9.18;73.54;102452.53;5098039;28;20051;-57
2023/04/18 00:33:47;;;;;;;20.13;18.13;;;;;;;9.21;73.67;102449.78;5095483;28;20024;-58
2023/04/18 00:36:13;;;;;;;21.63;19.38;;;;;;;9.35;73.64;102452.81;5096675;28;20020;-57
2023/04/18 00:38:38;;;;;;;20.23;18.23;;;;;;;9.24;74.48;102452.31;5095406;28;20100;-57
2023/04/18 00:41:06;;;;;;;21.42;19.40;;;;;;;9.17;74.25;102450.75;5106428;28;20096;-58
2023/04/18 00:43:33;;;;;;;21.77;19.42;;;;;;;8.97;74.98;102448.72;5098131;28;20036;-57
2023/04/18 00:46:01;;;;;;;22.77;19.10;;;;;;;8.84;75.87;102438.47;5093560;28;20042;-57
2023/04/18 00:48:28;;;;;;;20.42;18.52;;;;;;;8.97;75.41;102443.41;5095094;28;20415;-58
2023/04/18 00:50:54;;;;;;;21.58;19.38;;;;;;;8.85;75.79;102442.91;5094748;28;20027;-57
2023/04/18 00:53:19;;;;;;;23.45;20.33;;;;;;;9.00;75.04;102443.31;5095027;28;20028;-57
2023/04/18 00:55:44;;;;;;;21.55;19.38;;;;;;;8.98;74.47;102445.16;5093612;28;20498;-57
2023/04/18 00:58:10;;;;;;;21.90;19.70;;;;;;;8.92;74.27;102445.38;5093887;28;20047;-58
2023/04/18 01:00:36;;;;;;;21.17;18.80;;;;;;;8.88;73.59;102441.91;5094264;28;20051;-57
2023/04/18 01:03:02;;;;;;;21.40;19.15;;;;;;;9.05;72.31;102438.75;5095014;28;20023;-58
2023/04/18 01:05:27;;;;;;;21.00;18.95;;;;;;;9.04;72.29;102443.19;5094334;28;20040;-58
2023/04/18 01:07:59;;;;;;;21.50;18.08;;;;;;;9.15;71.43;102447.28;5093666;28;20012;-57
2023/04/18 01:10:25;;;;;;;20.27;18.25;;;;;;;9.10;69.14;102434.16;5092922;28;20015;-57
2023/04/18 01:13:18;;;;;;;20.02;18.02;;;;;;;9.22;68.95;102443.53;5096768;28;20027;-57
2023/04/18 01:15:45;;;;;;;22.00;18.15;;;;;;;9.02;69.15;102449.47;5094132;28;20382;-58
2023/04/18 01:18:12;;;;;;;21.25;17.98;;;;;;;9.00;67.51;102438.91;5094275;28;20016;-57
2023/04/18 01:20:45;;;;;;;19.33;17.45;;;;;;;8.90;67.36;102432.13;5089939;28;20021;-57
2023/04/18 01:23:11;;;;;;;20.25;18.08;;;;;;;8.98;66.95;102445.16;5074506;28;20024;-58
2023/04/18 01:25:37;;;;;;;19.48;17.58;;;;;;;9.04;66.36;102442.31;5077877;28;20026;-57
2023/04/18 01:28:03;;;;;;;19.52;17.50;;;;;;;8.91;67.16;102447.13;5093299;28;20615;-57
2023/04/18 01:30:28;;;;;;;18.55;16.75;;;;;;;8.79;66.37;102445.72;5092613;28;20027;-57
2023/04/18 01:32:54;;;;;;;19.52;17.17;;;;;;;8.91;66.83;102444.47;5094196;28;20016;-58
2023/04/18 01:35:19;;;;;;;19.15;17.35;;;;;;;8.76;66.87;102434.31;5094057;28;20524;-58
2023/04/18 01:37:47;;;;;;;19.08;17.27;;;;;;;8.83;67.57;102428.81;5094155;28;20032;-58
2023/04/18 01:40:15;;;;;;;19.88;16.88;;;;;;;8.75;66.72;102427.28;5092797;28;20016;-57
2023/04/18 01:42:41;;;;;;;20.13;18.02;;;;;;;8.83;66.64;102433.25;5094126;28;20059;-57
2023/04/18 01:45:06;;;;;;;18.92;17.00;;;;;;;8.81;65.84;102427.97;5105212;28;20028;-57
2023/04/18 01:47:32;;;;;;;19.17;17.13;;;;;;;8.75;65.79;102411.38;5110429;28;20461;-58
2023/04/18 01:49:57;;;;;;;20.88;18.45;;;;;;;8.70;66.69;102424.75;5094415;28;20471;-57
2023/04/18 01:52:22;;;;;;;21.92;18.13;;;;;;;8.61;66.61;102423.25;5094003;28;20031;-58
2023/04/18 01:54:50;;;;;;;20.55;18.38;;;;;;;8.62;66.77;102425.00;5104972;28;20066;-58
2023/04/18 01:57:16;;;;;;;18.33;16.55;;;;;;;8.57;67.36;102418.97;5096056;28;20024;-58
2023/04/18 01:59:44;;;;;;;21.98;18.42;;;;;;;8.42;67.96;102422.06;5110506;27;20490;-58
2023/04/18 02:02:10;;;;;;;21.70;17.88;;;;;;;8.52;67.38;102425.31;5107735;28;20031;-57
2023/04/18 02:04:40;;;;;;;19.40;17.60;;;;;;;8.37;68.00;102426.59;5113830;28;20517;-57
2023/04/18 02:07:05;;;;;;;;;;;;;;;8.57;67.35;102423.41;5111583;28;20110;-57
2023/04/18 02:09:30;;;;;;;21.02;18.38;;;;;;;8.37;68.25;102422.16;5112205;28;19951;-57
2023/04/18 02:11:58;;;;;;;21.20;19.02;;;;;;;8.44;67.31;102424.66;5093936;28;20020;-57
2023/04/18 02:14:31;;;;;;;21.58;18.73;;;;;;;8.25;68.04;102414.56;5105248;28;20029;-57
2023/04/18 02:16:57;;;;;;;21.25;17.42;;;;;;;8.41;67.47;102429.16;5111788;28;20024;-58
2023/04/18 02:19:23;;;;;;;20.52;18.15;;;;;;;8.34;67.53;102418.72;5111333;28;20486;-57
2023/04/18 02:21:49;;;;;;;20.42;18.23;;;;;;;8.38;67.11;102410.69;5110232;28;20026;-58
2023/04/18 02:24:16;;;;;;;20.48;18.33;;;;;;;8.44;67.21;102419.34;5111133;28;20020;-57
2023/04/18 02:26:42;;;;;;;21.58;17.52;;;;;;;8.27;67.42;102419.81;5112377;28;20015;-57
2023/04/18 02:29:08;;;;;;;20.30;18.52;;;;;;;8.19;67.68;102404.13;5112293;28;20027;-57
2023/04/18 02:31:33;;;;;;;19.50;17.45;;;;;;;8.12;67.67;102413.16;5110203;28;20023;-57
2023/04/18 02:33:59;;;;;;;19.00;17.25;;;;;;;8.10;67.47;102413.19;5107512;28;20436;-57
2023/04/18 02:36:26;;;;;;;19.30;17.40;;;;;;;8.19;67.28;102406.78;5110890;28;20076;-57
2023/04/18 02:38:53;;;;;;;19.85;18.00;;;;;;;8.11;67.63;102419.38;5106343;28;20047;-57
2023/04/18 02:41:18;;;;;;;19.55;17.48;;;;;;;7.99;68.21;102406.44;5111991;27;20031;-57
2023/04/18 02:43:44;;;;;;;19.88;17.67;;;;;;;8.06;67.68;102410.66;5112030;28;20055;-57
2023/04/18 02:46:10;;;;;;;19.63;17.83;;;;;;;7.85;68.08;102410.34;5111099;28;20494;-57
2023/04/18 02:48:35;;;;;;;20.98;18.77;;;;;;;7.80;68.87;102411.38;5112129;28;20111;-58
2023/04/18 02:51:02;;;;;;;20.15;18.17;;;;;;;7.93;68.19;102420.72;5110382;28;20027;-57
2023/04/18 02:53:27;;;;;;;19.33;17.58;;;;;;;7.79;67.88;102409.63;5108984;28;20502;-57
2023/04/18 02:55:53;;;;;;;19.60;17.65;;;;;;;7.75;68.58;102411.50;5110515;28;20016;-58
2023/04/18 02:58:18;;;;;;;19.83;18.00;;;;;;;7.75;68.78;102403.53;5111860;28;20110;-58
2023/04/18 03:00:44;;;;;;;20.73;18.55;;;;;;;7.68;68.64;102416.09;5109507;28;20011;-57
2023/04/18 03:03:09;;;;;;;19.77;17.88;;;;;;;7.76;68.28;102415.88;5110548;28;20024;-57
2023/04/18 03:05:35;;;;;;;19.20;17.40;;;;;;;7.71;68.52;102416.00;5111371;28;20132;-57
2023/04/18 03:08:00;;;;;;;22.60;18.23;;;;;;;7.56;68.78;102416.41;5111281;28;20023;-57
2023/04/18 03:10:28;;;;;;;19.65;17.63;;;;;;;7.57;68.82;102406.69;5104766;28;20028;-57
2023/04/18 03:12:53;;;;;;;20.17;18.17;;;;;;;7.44;69.39;102407.00;5091125;28;20073;-57
2023/04/18 03:15:21;;;;;;;18.75;16.98;;;;;;;7.50;69.29;102408.63;5102002;28;20024;-57
2023/04/18 03:17:46;;;;;;;21.00;19.00;;;;;;;7.42;69.46;102416.75;5112808;28;20024;-57
2023/04/18 03:20:11;;;;;;;19.05;17.15;;;;;;;7.31;69.18;102402.88;5110287;28;20034;-57
2023/04/18 03:22:37;;;;;;;18.75;16.90;;;;;;;7.41;69.40;102409.72;5097866;28;20027;-57
2023/04/18 03:25:03;;;;;;;19.92;17.92;;;;;;;7.35;69.69;102422.22;5092089;28;20032;-57
2023/04/18 03:27:28;;;;;;;19.23;17.33;;;;;;;7.36;69.80;102416.88;5092162;28;20016;-57
2023/04/18 03:29:53;;;;;;;20.00;18.00;;;;;;;7.35;69.25;102423.06;5091934;28;20030;-58
2023/04/18 03:32:19;;;;;;;22.58;16.52;;;;;;;7.27;69.57;102417.97;5091646;28;20027;-57
2023/04/18 03:34:44;;;;;;;19.88;17.83;;;;;;;7.19;70.18;102419.06;5092160;28;20467;-58
2023/04/18 03:37:10;;;;;;;20.13;18.10;;;;;;;7.17;70.58;102423.50;5092184;28;20107;-57
2023/04/18 03:39:35;;;;;;;22.15;18.60;;;;;;;7.08;70.38;102419.31;5090757;28;20024;-57
2023/04/18 03:42:01;;;;;;;19.65;17.75;;;;;;;7.22;69.81;102424.28;5091851;28;20062;-57
2023/04/18 03:44:26;;;;;;;19.90;18.02;;;;;;;7.07;70.70;102422.00;5091777;28;20021;-57
2023/04/18 03:46:52;;;;;;;21.48;19.40;;;;;;;7.08;69.67;102413.16;5090067;28;20024;-57
2023/04/18 03:49:18;;;;;;;20.23;18.33;;;;;;;7.11;69.77;102418.38;5092077;28;20103;-57
2023/04/18 03:51:46;;;;;;;17.88;16.02;;;;;;;7.24;69.73;102420.69;5091664;28;20102;-57
2023/04/18 03:54:13;;;;;;;19.38;17.35;;;;;;;7.01;70.11;102415.94;5090875;28;20020;-57
2023/04/18 03:56:39;;;;;;;20.30;18.40;;;;;;;6.97;70.10;102416.94;5091789;28;20493;-57
2023/04/18 03:59:05;;;;;;;20.50;18.40;;;;;;;7.07;70.36;102422.88;5091519;28;20023;-57
2023/04/18 04:01:32;;;;;;;18.65;16.85;;;;;;;7.04;69.97;102417.66;5091254;28;20020;-57
2023/04/18 04:04:01;;;;;;;17.95;16.20;;;;;;;7.01;70.71;102421.22;5092514;28;20016;-57
2023/04/18 04:06:27;;;;;;;18.97;17.17;;;;;;;6.91;70.28;102400.31;5078318;28;20016;-57
2023/04/18 04:08:52;;;;;;;20.40;18.52;;;;;;;6.75;71.09;102419.16;5095958;28;20791;-57
2023/04/18 04:11:18;;;;;;;18.13;16.33;;;;;;;6.90;70.53;102417.97;5095722;28;20027;-57
2023/04/18 04:13:43;;;;;;;19.33;17.63;;;;;;;6.61;71.53;102423.88;5094092;28;20024;-57
2023/04/18 04:16:09;;;;;;;21.27;13.73;;;;;;;6.83;70.75;102424.28;5095179;28;20020;-57
2023/04/18 04:18:34;;;;;;;20.85;18.98;;;;;;;6.67;71.48;102423.75;5095763;28;20036;-57
2023/04/18 04:20:59;;;;;;;19.75;17.77;;;;;;;6.80;70.92;102430.53;5094351;28;20024;-57
2023/04/18 04:23:25;;;;;;;18.35;16.20;;;;;;;6.75;71.07;102419.16;5097606;28;20060;-57
2023/04/18 04:25:52;;;;;;;18.73;16.75;;;;;;;6.79;71.08;102430.53;5096012;28;20041;-58
2023/04/18 04:28:23;;;;;;;21.40;19.10;;;;;;;6.71;71.03;102430.72;5095192;28;20091;-58
2023/04/18 04:30:54;;;;;;;17.48;15.02;;;;;;;6.67;71.70;102436.09;5092568;28;20081;-57
2023/04/18 04:33:32;;;;;;;21.05;17.85;;;;;;;6.64;71.56;102430.88;5095342;28;20487;-57
2023/04/18 04:36:00;;;;;;;19.45;15.68;;;;;;;6.51;72.25;102423.22;5095284;28;20024;-57
2023/04/18 04:38:26;;;;;;;18.92;17.08;;;;;;;6.58;71.99;102437.16;5095437;28;20067;-57
2023/04/18 04:40:51;;;;;;;21.23;19.08;;;;;;;6.54;71.97;102436.34;5094885;28;20051;-57
2023/04/18 04:43:19;;;;;;;17.88;15.95;;;;;;;6.62;71.75;102430.03;5093888;28;20023;-57
2023/04/18 04:45:48;;;;;;;19.02;17.35;;;;;;;6.56;72.17;102434.56;5094444;28;20035;-58
2023/04/18 04:48:14;;;;;;;18.00;16.23;;;;;;;6.47;72.22;102426.81;5095215;28;20020;-57
2023/04/18 04:50:40;;;;;;;20.98;17.98;;;;;;;6.45;72.47;102433.03;5098122;28;20031;-57
2023/04/18 04:53:10;;;;;;;16.73;15.07;;;;;;;6.59;71.40;102433.63;5095163;28;20032;-57
2023/04/18 04:55:37;;;;;;;17.17;15.30;;;;;;;6.46;71.75;102424.19;5094850;28;20039;-57
2023/04/18 04:58:02;;;;;;;18.42;16.75;;;;;;;6.47;71.87;102426.81;5109113;28;20024;-57
2023/04/18 05:00:28;;;;;;;17.98;16.40;;;;;;;6.61;71.96;102437.09;5113311;28;20469;-57
2023/04/18 05:02:55;;;;;;;20.25;18.25;;;;;;;6.53;71.65;102441.66;5113064;28;20016;-57
2023/04/18 05:05:20;;;;;;;19.48;17.20;;;;;;;6.47;71.94;102434.75;5103919;28;20048;-57
2023/04/18 05:07:46;;;;;;;18.13;14.80;;;;;;;6.59;71.38;102442.44;5094533;28;20069;-57
2023/04/18 05:10:14;;;;;;;16.63;15.02;;;;;;;6.42;72.20;102430.47;5094512;28;20102;-57
2023/04/18 05:12:39;;;;;;;19.10;17.27;;;;;;;5.93;72.48;102374.16;5094765;28;20069;-57
2023/04/18 05:15:05;;;;;;;16.77;15.02;;;;;;;6.33;72.63;102436.81;5094041;28;20016;-57
2023/04/18 05:17:33;;;;;;;17.48;15.77;;;;;;;6.36;72.15;102431.44;5093999;28;20028;-57
2023/04/18 05:19:58;;;;;;;18.25;16.55;;;;;;;6.29;72.65;102435.97;5098283;28;20483;-57
2023/04/18 05:22:23;;;;;;;16.38;14.68;;;;;;;6.39;72.46;102438.44;5097535;28;20027;-57
2023/04/18 05:24:49;;;;;;;20.13;18.20;;;;;;;6.30;72.20;102443.00;5094789;28;20257;-57
2023/04/18 05:27:14;;;;;;;17.63;15.50;;;;;;;6.40;71.98;102442.81;5098644;28;20020;-58
2023/04/18 05:29:40;;;;;;;17.33;14.68;;;;;;;6.35;72.33;102442.91;5092947;28;20124;-57
2023/04/18 05:32:05;;;;;;;18.73;16.17;;;;;;;6.33;72.39;102444.72;5109637;28;20584;-57
2023/04/18 05:34:31;;;;;;;16.92;15.05;;;;;;;6.40;72.28;102451.63;5109861;28;20035;-57
2023/04/18 05:36:57;;;;;;;19.98;18.10;;;;;;;6.41;71.65;102450.69;5114386;28;20051;-57
2023/04/18 05:39:22;;;;;;;19.63;17.88;;;;;;;6.52;71.68;102455.78;5109302;28;20084;-57
2023/04/18 05:41:48;;;;;;;17.02;15.30;;;;;;;6.55;71.92;102453.94;5111166;28;20080;-57
2023/04/18 05:44:14;;;;;;;17.30;15.50;;;;;;;6.68;71.64;102465.16;5092798;28;20020;-57
2023/04/18 05:46:40;;;;;;;20.30;18.27;;;;;;;6.48;71.78;102446.19;5095060;28;20478;-57
2023/04/18 05:49:05;;;;;;;18.65;16.70;;;;;;;6.63;71.86;102464.38;5112237;28;20072;-57
2023/04/18 05:51:31;;;;;;;18.70;16.73;;;;;;;6.65;71.26;102470.50;5114275;28;20066;-57
2023/04/18 05:53:57;;;;;;;17.80;15.30;;;;;;;6.73;70.76;102476.50;5110448;28;20040;-57
2023/04/18 05:56:27;;;;;;;17.33;15.52;;;;;;;6.82;70.51;102471.03;5114064;28;20068;-57
2023/04/18 05:58:52;;;;;;;19.65;17.83;;;;;;;6.81;71.27;102479.84;5114395;28;20026;-57
2023/04/18 06:01:18;;;;;;;16.95;15.18;;;;;;;6.90;71.57;102475.28;5110910;28;20020;-57
2023/04/18 06:03:43;;;;;;;17.38;15.63;;;;;;;6.91;71.25;102479.66;5114121;28;20475;-57
2023/04/18 06:06:09;;;;;;;16.92;15.20;;;;;;;6.93;71.08;102470.78;5113874;28;20047;-57
2023/04/18 06:08:37;;;;;;;19.02;17.35;;;;;;;6.89;71.24;102468.25;5111119;28;20031;-57
2023/04/18 06:11:02;;;;;;;22.75;16.70;;;;;;;6.92;71.01;102473.47;5092145;28;20035;-57
2023/04/18 06:13:28;;;;;;;20.08;18.25;;;;;;;6.95;71.46;102476.91;5112017;28;20023;-57
2023/04/18 06:15:53;;;;;;;18.95;15.77;;;;;;;7.18;70.68;102488.78;5098523;28;20402;-57
2023/04/18 06:18:18;;;;;;;18.10;15.32;;;;;;;7.14;70.73;102487.97;5093321;28;20026;-57
2023/04/18 06:20:44;;;;;;;19.60;17.83;;;;;;;6.97;70.78;102474.22;5091520;28;20028;-57
2023/04/18 06:23:09;;;;;;;15.68;14.18;;;;;;;7.10;70.73;102488.94;5093262;28;20028;-57
2023/04/18 06:25:35;;;;;;;20.40;18.60;;;;;;;7.09;71.32;102488.97;5093106;28;20374;-57
2023/04/18 06:28:00;;;;;;;17.67;14.82;;;;;;;7.12;71.71;102492.44;5091034;28;20012;-57
2023/04/18 06:30:28;;;;;;;19.48;17.58;;;;;;;7.13;71.40;102486.22;5091477;28;20548;-57
2023/04/18 06:32:53;;;;;;;18.70;16.90;;;;;;;7.20;70.94;102498.41;5093136;28;20095;-57
2023/04/18 06:35:18;;;;;;;21.45;19.45;;;;;;;7.21;71.50;102491.34;5092846;28;20107;-58
2023/04/18 06:37:44;;;;;;;18.50;16.58;;;;;;;7.26;72.12;102471.81;5092490;28;20024;-58
2023/04/18 06:40:12;;;;;;;19.30;17.35;;;;;;;7.36;71.59;102487.50;5092000;28;20544;-57
2023/04/18 06:42:40;;;;;;;20.27;18.38;;;;;;;7.30;72.75;102487.63;5091793;28;20020;-57
2023/04/18 06:45:06;;;;;;;18.17;16.48;;;;;;;7.45;72.68;102481.97;5091807;28;20028;-58
2023/04/18 06:47:32;;;;;;;19.05;17.27;;;;;;;7.52;72.23;102494.16;5091288;28;20279;-57
2023/04/18 06:49:57;;;;;;;20.10;18.15;;;;;;;7.56;71.88;102495.84;5092700;28;20032;-57
2023/04/18 06:52:25;;;;;;;17.45;15.13;;;;;;;7.64;71.96;102498.28;5092857;28;20028;-57
2023/04/18 06:54:50;;;;;;;21.23;19.38;;;;;;;7.70;72.21;102492.81;5092745;28;20036;-57
2023/04/18 06:57:16;;;;;;;19.33;17.58;;;;;;;7.76;71.79;102500.63;5092639;28;20051;-57
2023/04/18 06:59:41;;;;;;;17.38;15.77;;;;;;;7.91;71.30;102507.31;5092923;28;20394;-57
2023/04/18 07:02:07;;;;;;;19.05;17.33;;;;;;;7.95;70.94;102501.06;5092322;28;20124;-57
2023/04/18 07:04:33;;;;;;;18.83;17.00;;;;;;;7.96;71.09;102503.63;5092366;28;20055;-57
2023/04/18 07:07:00;;;;;;;19.42;17.63;;;;;;;7.97;70.91;102501.84;5092245;28;20020;-57
2023/04/18 07:09:25;;;;;;;19.15;17.27;;;;;;;7.94;71.41;102502.84;5092754;28;20027;-58
2023/04/18 07:11:51;;;;;;;19.70;17.98;;;;;;;7.93;71.27;102502.84;5090971;28;20077;-57
2023/04/18 07:14:18;;;;;;;18.50;16.80;;;;;;;8.07;71.11;102506.03;5092524;28;20099;-58
2023/04/18 07:16:45;;;;;;;19.10;17.50;;;;;;;8.06;70.93;102500.75;5091767;28;20069;-58
2023/04/18 07:19:11;;;;;;;18.85;17.25;;;;;;;8.11;71.31;102499.72;5092476;28;20028;-58
2023/04/18 07:21:39;;;;;;;18.60;16.90;;;;;;;8.12;71.28;102501.47;5092021;28;20027;-58
2023/04/18 07:24:06;;;;;;;20.30;18.08;;;;;;;8.19;70.78;102503.06;5092261;28;20024;-58
2023/04/18 07:26:32;;;;;;;19.80;17.98;;;;;;;8.29;71.07;102513.41;5092096;28;20182;-58
2023/04/18 07:28:57;;;;;;;18.67;16.90;;;;;;;8.40;70.81;102504.28;5092094;28;20032;-58
2023/04/18 07:31:24;;;;;;;18.50;16.90;;;;;;;8.45;70.29;102511.25;5091744;28;20038;-58
2023/04/18 07:33:50;;;;;;;19.35;17.63;;;;;;;8.58;70.26;102517.94;5091901;28;20028;-58
2023/04/18 07:36:16;;;;;;;18.52;16.83;;;;;;;8.52;70.17;102511.03;5091642;28;20028;-58
2023/04/18 07:38:43;;;;;;;19.60;17.75;;;;;;;8.57;70.33;102516.22;5090791;28;20481;-58
2023/04/18 07:41:08;;;;;;;20.55;17.80;;;;;;;8.62;70.10;102504.56;5092292;28;20502;-58
2023/04/18 07:43:35;;;;;;;18.10;16.25;;;;;;;8.67;69.97;102517.69;5107854;28;20020;-58
2023/04/18 07:46:00;;;;;;;19.52;17.77;;;;;;;8.68;70.02;102522.09;5091427;28;20062;-58
2023/04/18 07:48:28;;;;;;;18.58;16.73;;;;;;;8.73;69.72;102520.16;5091892;28;20424;-58
2023/04/18 07:50:54;;;;;;;16.85;15.20;;;;;;;8.94;69.87;102515.16;5091582;28;20032;-58
2023/04/18 07:53:19;;;;;;;17.75;16.00;;;;;;;9.00;68.76;102504.34;5091997;28;20506;-58
2023/04/18 07:55:45;;;;;;;18.48;16.60;;;;;;;9.30;68.48;102527.34;5091437;28;20056;-58
2023/04/18 07:58:13;;;;;;;18.10;16.48;;;;;;;9.50;68.48;102518.75;5090731;28;20028;-58
2023/04/18 08:00:41;;;;;;;16.63;15.20;;;;;;;9.60;66.62;102521.97;5091504;28;20024;-58
2023/04/18 08:03:08;;;;;;;16.63;15.07;;;;;;;9.59;66.66;102528.22;5091979;28;20024;-58
2023/04/18 08:05:34;;;;;;;17.27;15.57;;;;;;;9.54;66.71;102522.19;5091275;28;20052;-58
2023/04/18 08:07:59;;;;;;;17.40;15.70;;;;;;;9.55;67.33;102524.78;5091802;28;20032;-58
2023/04/18 08:10:25;;;;;;;17.55;16.00;;;;;;;9.36;67.95;102542.22;5091542;28;20059;-58
2023/04/18 08:12:50;;;;;;;16.70;15.30;;;;;;;9.44;67.60;102536.66;5091745;28;20031;-58
2023/04/18 08:15:16;;;;;;;17.50;15.75;;;;;;;9.43;67.94;102530.47;5107430;28;20475;-58
2023/04/18 08:17:43;;;;;;;17.15;15.48;;;;;;;9.45;67.59;102530.44;5091280;28;20416;-58
2023/04/18 08:20:11;;;;;;;18.80;17.00;;;;;;;9.58;68.56;102534.44;5091624;28;20025;-58
2023/04/18 08:22:40;;;;;;;17.90;16.38;;;;;;;9.49;67.48;102540.91;5091586;28;20028;-58
2023/04/18 08:25:05;;;;;;;17.45;15.60;;;;;;;9.38;68.08;102537.69;5091624;28;20394;-58
2023/04/18 08:27:31;;;;;;;17.90;16.20;;;;;;;9.38;68.04;102537.69;5091393;28;20099;-58
2023/04/18 08:29:57;;;;;;;17.73;15.98;;;;;;;9.35;67.83;102534.28;5090073;28;20024;-58
2023/04/18 08:32:22;;;;;;;17.63;15.95;;;;;;;9.37;68.27;102538.63;5091181;28;20031;-58
2023/04/18 08:34:47;;;;;;;17.27;15.75;;;;;;;9.36;68.28;102533.38;5091409;28;20529;-58
2023/04/18 08:37:13;;;;;;;18.23;16.73;;;;;;;9.27;68.65;102527.44;5091188;28;20365;-58
2023/04/18 08:39:38;;;;;;;17.08;15.68;;;;;;;9.40;69.03;102530.56;5091528;28;20086;-58
2023/04/18 08:42:05;;;;;;;19.05;17.15;;;;;;;9.51;68.57;102536.41;5091397;28;20421;-58
2023/04/18 08:44:31;;;;;;;17.45;15.88;;;;;;;9.70;69.07;102539.34;5091629;28;20085;-58
2023/04/18 08:46:58;;;;;;;17.48;15.98;;;;;;;9.67;68.37;102526.16;5091211;28;20066;-58
2023/04/18 08:49:24;;;;;;;18.20;16.52;;;;;;;9.75;68.84;102526.78;5091331;28;20054;-58
2023/04/18 08:51:51;;;;;;;17.65;15.93;;;;;;;9.79;67.71;102535.53;5094914;28;20036;-58
2023/04/18 08:54:18;;;;;;;18.30;16.80;;;;;;;9.81;68.54;102525.72;5095247;28;20032;-58
2023/04/18 08:56:44;;;;;;;17.08;15.68;;;;;;;9.82;68.57;102529.25;5093627;28;20024;-58
2023/04/18 08:59:10;;;;;;;16.40;14.82;;;;;;;10.02;68.27;102524.13;5095207;28;20106;-58
2023/04/18 09:02:00;;;;;;;16.80;15.20;;;;;;;10.23;67.85;102526.09;5094398;28;20488;-58
2023/04/18 09:04:37;;;;;;;17.30;15.80;;;;;;;10.41;67.90;102523.72;5093663;28;20097;-58
2023/04/18 09:07:05;;;;;;;16.00;14.60;;;;;;;10.62;66.33;102516.78;5094740;28;20039;-58
2023/04/18 09:09:49;;;;;;;17.38;15.98;;;;;;;10.71;65.02;102518.19;5094890;28;20034;-58
2023/04/18 09:12:22;;;;;;;15.93;14.73;;;;;;;10.88;64.88;102511.34;5094748;28;20462;-58
2023/04/18 09:14:50;;;;;;;16.95;15.55;;;;;;;11.11;63.95;102514.91;5093494;28;20020;-58
2023/04/18 09:17:37;;;;;;;17.23;15.63;;;;;;;11.52;62.87;102513.28;5093858;28;20103;-58
2023/04/18 09:20:04;;;;;;;17.17;15.73;;;;;;;11.56;62.67;102514.06;5110054;28;20119;-58
2023/04/18 09:22:51;;;;;;;16.52;15.13;;;;;;;11.53;63.55;102499.06;5093358;28;20036;-58
2023/04/18 09:25:28;;;;;;;17.08;15.48;;;;;;;11.36;60.89;102512.19;5093295;28;20051;-58
2023/04/18 09:27:59;;;;;;;17.02;15.50;;;;;;;11.29;60.69;102522.19;5094457;28;20020;-58
2023/04/18 09:30:40;;;;;;;16.48;15.07;;;;;;;11.26;61.84;102518.78;5092576;28;20506;-58
2023/04/18 09:33:08;;;;;;;16.27;14.93;;;;;;;11.18;61.40;102527.09;5093306;28;20479;-58
2023/04/18 09:35:35;;;;;;;16.38;14.85;;;;;;;11.18;60.98;102512.88;5093016;28;20027;-58
2023/04/18 09:38:01;;;;;;;17.23;15.50;;;;;;;11.21;61.59;102518.97;5094174;28;20056;-58
2023/04/18 09:40:27;;;;;;;15.57;14.27;;;;;;;11.32;61.34;102519.44;5094163;28;20085;-58
2023/04/18 09:42:55;;;;;;;16.30;14.88;;;;;;;11.31;60.50;102514.16;5094135;28;20063;-58
2023/04/18 09:45:22;;;;;;;15.98;14.48;;;;;;;11.35;61.13;102508.66;5092280;28;20031;-59
2023/04/18 09:47:51;;;;;;;16.38;14.77;;;;;;;11.21;61.20;102496.81;5094057;28;20031;-58
2023/04/18 09:50:17;;;;;;;17.00;15.50;;;;;;;11.29;60.57;102506.19;5094108;28;20587;-58
2023/04/18 09:52:44;;;;;;;15.43;13.75;;;;;;;11.21;60.44;102502.13;5094092;28;20512;-58
2023/04/18 09:55:15;;;;;;;15.90;14.60;;;;;;;11.13;60.61;102511.28;5093032;28;20035;-58
2023/04/18 09:57:46;;;;;;;15.68;14.35;;;;;;;11.29;61.10;102503.53;5093797;28;20445;-58
2023/04/18 10:00:22;;;;;;;15.43;14.07;;;;;;;11.37;60.68;102512.09;5092594;28;20123;-58
2023/04/18 10:02:56;;;;;;;14.55;13.27;;;;;;;11.42;59.62;102503.06;5092501;28;20050;-58
2023/04/18 10:05:25;;;;;;;15.43;14.05;;;;;;;11.52;59.37;102504.44;5093593;28;20099;-58
2023/04/18 10:07:55;;;;;;;14.40;13.20;;;;;;;11.43;59.52;102507.47;5092289;28;20043;-58
2023/04/18 10:10:20;;;;;;;16.98;13.88;;;;;;;11.51;59.42;102502.72;5092170;28;20064;-58
2023/04/18 10:12:49;;;;;;;13.23;11.93;;;;;;;11.43;60.03;102497.66;5093732;28;20032;-58
2023/04/18 10:15:15;;;;;;;13.57;12.15;;;;;;;11.35;59.72;102505.09;5093414;28;20081;-58
2023/04/18 10:18:02;;;;;;;13.52;12.50;;;;;;;11.48;59.71;102508.16;5093158;28;20024;-58
2023/04/18 10:20:32;;;;;;;13.07;12.02;;;;;;;11.29;59.55;102511.53;5093224;28;20026;-58
2023/04/18 10:23:01;;;;;;;13.18;11.95;;;;;;;11.37;58.67;102517.44;5093554;28;20467;-58
2023/04/18 10:25:32;;;;;;;11.57;10.57;;;;;;;11.23;58.89;102505.59;5093442;28;20024;-58
2023/04/18 10:28:00;;;;;;;12.10;10.95;;;;;;;11.28;59.23;102506.28;5092023;28;20077;-58
2023/04/18 10:30:40;;;;;;;11.60;10.60;;;;;;;11.39;59.06;102512.06;5092574;28;20024;-58
2023/04/18 10:33:29;;;;;;;11.00;10.20;;;;;;;11.27;58.09;102512.53;5093135;28;20027;-58
2023/04/18 10:36:16;;;;;;;10.65;9.85;;;;;;;11.29;57.69;102516.84;5091819;28;20020;-58
2023/04/18 10:39:04;;;;;;;11.18;10.18;;;;;;;11.36;57.34;102513.03;5093318;28;20398;-58
2023/04/18 10:41:31;;;;;;;11.93;10.70;;;;;;;11.39;57.90;102517.38;5093241;28;20028;-58
2023/04/18 10:46:51;;;;;;;13.07;10.20;;;;;;;11.56;56.13;102517.59;5092682;28;20023;-58
2023/04/18 10:49:18;;;;;;;11.23;10.32;;;;;;;11.55;56.80;102512.28;5092980;28;20057;-58
2023/04/18 10:51:48;;;;;;;12.35;11.43;;;;;;;11.79;57.19;102513.09;5092751;28;20039;-58
2023/04/18 10:54:51;;;;;;;11.73;10.73;;;;;;;11.96;58.07;102510.63;5092982;28;20081;-58
2023/04/18 10:57:16;;;;;;;12.98;11.82;;;;;;;12.11;56.19;102500.22;5091385;28;20047;-58
2023/04/18 10:59:43;;;;;;;12.07;10.95;;;;;;;11.97;56.72;102514.16;5092688;28;20471;-57
2023/04/18 11:02:24;;;;;;;12.43;11.35;;;;;;;11.95;56.28;102502.69;5091067;28;20494;-58
2023/04/18 11:04:55;;;;;;;13.52;11.70;;;;;;;11.87;56.31;102513.69;5092220;28;20051;-57
2023/04/18 11:07:47;;;;;;;13.25;12.05;;;;;;;11.81;57.24;102512.09;5091250;28;20032;-58
2023/04/18 11:10:19;;;;;;;12.15;11.15;;;;;;;11.68;58.04;102510.03;5092609;28;20016;-58
2023/04/18 11:12:46;;;;;;;11.75;10.70;;;;;;;11.69;57.75;102506.41;5091875;28;20471;-59
2023/04/18 11:15:22;;;;;;;11.95;10.95;;;;;;;11.64;58.16;102505.72;5091507;28;20521;-58
2023/04/18 11:18:01;;;;;;;12.73;11.60;;;;;;;11.65;58.78;102510.13;5092320;28;20027;-58
2023/04/18 11:20:28;;;;;;;12.63;11.57;;;;;;;11.67;59.38;102505.59;5092380;28;20038;-58
2023/04/18 11:22:59;;;;;;;13.00;11.75;;;;;;;11.57;59.29;102502.44;5092093;28;20031;-58